createdAt,value
2022-10-19T00:03:35.339Z,8.20
2022-10-19T00:06:17.517Z,7.30
2022-10-19T00:08:49.474Z,8.10
2022-10-19T00:11:22.104Z,7.40
2022-10-19T00:13:54.986Z,7.50
2022-10-19T00:16:29.233Z,7.70
2022-10-19T00:19:03.057Z,7.90
2022-10-19T00:21:35.265Z,7.90
2022-10-19T00:24:08.526Z,8.10
2022-10-19T00:26:40.661Z,8.10
2022-10-19T00:29:14.248Z,8.20
2022-10-19T00:31:46.511Z,8.20
2022-10-19T00:34:18.543Z,8.10
2022-10-19T00:36:50.436Z,8.90
2022-10-19T00:39:22.347Z,8.40
2022-10-19T00:45:10.746Z,7.20
2022-10-19T00:47:43.854Z,7.40
2022-10-19T00:50:17.439Z,8.80
2022-10-19T00:52:49.553Z,7.90
2022-10-19T00:55:22.082Z,8.00
2022-10-19T00:57:53.903Z,8.60
2022-10-19T01:00:25.817Z,8.20
2022-10-19T01:02:58.943Z,7.80
2022-10-19T01:05:31.918Z,9.00
2022-10-19T01:08:04.409Z,7.00
2022-10-19T01:10:44.015Z,8.00
2022-10-19T01:13:32.338Z,9.30
2022-10-19T01:16:12.025Z,9.30
2022-10-19T01:18:51.833Z,9.20
2022-10-19T01:21:26.391Z,9.70
2022-10-19T01:24:44.458Z,10.20
2022-10-19T01:27:44.967Z,9.40
2022-10-19T01:30:20.745Z,8.90
2022-10-19T01:33:03.589Z,10.40
2022-10-19T01:35:44.670Z,10.30
2022-10-19T01:38:29.514Z,10.30
2022-10-19T01:41:11.518Z,10.40
2022-10-19T01:43:47.584Z,10.80
2022-10-19T01:46:24.057Z,10.90
2022-10-19T01:49:03.136Z,10.70
2022-10-19T01:51:39.671Z,11.10
2022-10-19T01:54:14.769Z,10.00
2022-10-19T01:56:49.604Z,10.70
2022-10-19T01:59:22.346Z,10.70
2022-10-19T02:01:55.733Z,9.90
2022-10-19T02:04:28.320Z,10.60
2022-10-19T02:07:02.863Z,11.90
2022-10-19T02:09:34.743Z,11.60
2022-10-19T02:14:44.449Z,10.30
2022-10-19T02:17:19.378Z,10.00
2022-10-19T02:19:51.735Z,9.60
2022-10-19T02:22:23.749Z,9.90
2022-10-19T02:24:55.665Z,10.10
2022-10-19T02:27:27.937Z,10.80
2022-10-19T02:30:00.165Z,11.30
2022-10-19T02:32:32.447Z,11.00
2022-10-19T02:35:05.030Z,12.00
2022-10-19T02:37:37.200Z,11.40
2022-10-19T02:42:46.458Z,11.80
2022-10-19T02:45:24.079Z,10.00
2022-10-19T02:47:59.882Z,11.80
2022-10-19T02:50:32.227Z,11.60
2022-10-19T02:53:04.435Z,13.00
2022-10-19T02:55:36.685Z,13.60
2022-10-19T02:58:09.114Z,14.10
2022-10-19T03:00:41.052Z,14.40
2022-10-19T03:05:44.013Z,11.90
2022-10-19T03:10:46.262Z,10.90
2022-10-19T03:13:18.242Z,10.50
2022-10-19T03:18:20.555Z,11.50
2022-10-19T03:20:52.333Z,11.10
2022-10-19T03:23:24.345Z,10.30
2022-10-19T03:28:26.911Z,9.20
2022-10-19T03:33:29.541Z,13.50
2022-10-19T03:36:22.793Z,14.70
2022-10-19T03:38:56.032Z,14.40
2022-10-19T03:41:29.852Z,15.40
2022-10-19T03:44:02.383Z,14.60
2022-10-19T03:46:34.352Z,14.00
2022-10-19T03:51:37.289Z,14.70
2022-10-19T03:54:16.553Z,14.50
2022-10-19T03:56:48.510Z,14.40
2022-10-19T04:01:50.753Z,12.30
2022-10-19T04:04:22.946Z,11.60
2022-10-19T04:06:54.835Z,12.00
2022-10-19T04:09:26.803Z,10.90
2022-10-19T04:11:58.657Z,11.50
2022-10-19T04:14:33.190Z,10.70
2022-10-19T04:17:11.984Z,11.70
2022-10-19T04:19:43.839Z,11.30
2022-10-19T04:22:16.978Z,10.30
2022-10-19T04:24:48.943Z,11.30
2022-10-19T04:27:20.887Z,10.70
2022-10-19T04:29:53.075Z,12.10
2022-10-19T04:34:55.438Z,12.40
2022-10-19T04:37:27.472Z,10.90
2022-10-19T04:39:59.829Z,11.10
2022-10-19T04:42:31.848Z,11.50
2022-10-19T04:45:03.890Z,12.50
2022-10-19T04:47:36.533Z,11.70
2022-10-19T04:50:09.853Z,12.50
2022-10-19T04:52:41.828Z,12.60
2022-10-19T04:55:13.698Z,12.80
2022-10-19T04:57:45.607Z,14.10
2022-10-19T05:00:18.592Z,14.70
2022-10-19T05:02:52.808Z,13.20
2022-10-19T05:05:26.604Z,14.00
2022-10-19T05:07:58.642Z,14.90
2022-10-19T05:13:03.402Z,14.20
2022-10-19T05:15:35.357Z,15.50
2022-10-19T05:20:39.030Z,15.50
2022-10-19T05:23:12.383Z,16.50
2022-10-19T05:28:14.613Z,16.30
2022-10-19T05:31:30.850Z,15.20
2022-10-19T05:34:28.189Z,15.30
2022-10-19T05:37:00.071Z,16.30
2022-10-19T05:39:32.328Z,15.70
2022-10-19T05:42:04.363Z,14.90
2022-10-19T05:47:06.871Z,15.20
2022-10-19T05:52:09.381Z,15.80
2022-10-19T05:57:11.602Z,15.10
2022-10-19T05:59:43.497Z,15.90
2022-10-19T06:02:16.686Z,15.90
2022-10-19T06:04:48.518Z,15.20
2022-10-19T06:07:20.540Z,15.10
2022-10-19T06:09:52.461Z,13.30
2022-10-19T06:14:57.220Z,13.60
2022-10-19T06:17:31.013Z,13.80
2022-10-19T06:20:03.055Z,13.70
2022-10-19T06:22:35.145Z,13.30
2022-10-19T06:27:38.348Z,12.50
2022-10-19T06:30:13.031Z,13.30
2022-10-19T06:32:45.179Z,12.30
2022-10-19T06:37:48.270Z,11.20
2022-10-19T06:42:51.071Z,11.10
2022-10-19T06:45:23.159Z,9.60
2022-10-19T06:50:25.602Z,9.30
2022-10-19T06:55:27.986Z,9.20
2022-10-19T06:58:01.804Z,8.50
2022-10-19T07:00:33.890Z,7.70
2022-10-19T07:03:06.126Z,7.40
2022-10-19T07:05:38.175Z,6.80
2022-10-19T07:08:10.417Z,6.30
2022-10-19T07:10:42.506Z,6.20
2022-10-19T07:13:14.518Z,5.70
2022-10-19T07:15:46.692Z,5.90
2022-10-19T07:18:18.802Z,5.30
2022-10-19T07:20:58.687Z,5.20
2022-10-19T07:23:32.694Z,4.00
2022-10-19T07:26:09.733Z,4.00
2022-10-19T07:28:43.434Z,4.00
2022-10-19T07:31:17.884Z,3.70
2022-10-19T07:33:53.212Z,3.50
2022-10-19T07:36:26.232Z,3.60
2022-10-19T07:38:58.258Z,3.10
2022-10-19T07:44:00.570Z,4.00
2022-10-19T07:46:34.461Z,3.60
2022-10-19T07:49:09.740Z,3.70
2022-10-19T07:51:41.982Z,3.50
2022-10-19T07:54:14.310Z,3.80
2022-10-19T07:56:46.516Z,4.30
2022-10-19T08:01:50.290Z,4.20
2022-10-19T08:07:14.770Z,3.70
2022-10-19T08:09:54.482Z,3.40
2022-10-19T08:12:26.625Z,3.50
2022-10-19T08:17:28.800Z,3.20
2022-10-19T08:20:00.938Z,4.00
2022-10-19T08:22:33.203Z,3.60
2022-10-19T08:25:05.739Z,3.50
2022-10-19T08:27:37.734Z,3.30
2022-10-19T08:32:40.717Z,3.00
2022-10-19T08:35:12.696Z,3.50
2022-10-19T08:40:23.936Z,2.60
2022-10-19T08:43:00.879Z,3.10
2022-10-19T08:48:28.629Z,3.30
2022-10-19T08:51:01.949Z,2.80
2022-10-19T08:53:43.372Z,2.90
2022-10-19T08:56:49.475Z,2.40
2022-10-19T08:59:27.205Z,2.70
2022-10-19T09:02:03.672Z,3.20
2022-10-19T09:04:41.859Z,2.40
2022-10-19T09:07:26.468Z,2.20
2022-10-19T09:10:02.495Z,2.80
2022-10-19T09:12:44.106Z,3.20
2022-10-19T09:15:20.303Z,2.70
2022-10-19T09:17:52.246Z,2.70
2022-10-19T09:23:04.323Z,2.20
2022-10-19T09:25:39.433Z,2.30
2022-10-19T09:28:31.552Z,2.20
2022-10-19T09:31:13.306Z,1.70
2022-10-19T09:33:52.642Z,2.10
2022-10-19T09:36:49.370Z,2.40
2022-10-19T09:39:20.899Z,2.00
2022-10-19T09:41:57.829Z,1.70
2022-10-19T09:44:31.392Z,1.90
2022-10-19T09:47:18.161Z,2.00
2022-10-19T09:49:51.345Z,2.50
2022-10-19T09:52:37.097Z,2.10
2022-10-19T09:55:21.498Z,2.30
2022-10-19T09:58:03.003Z,2.40
2022-10-19T10:00:39.062Z,2.20
2022-10-19T10:03:22.580Z,1.40
2022-10-19T10:05:56.469Z,2.10
2022-10-19T10:08:32.267Z,2.00
2022-10-19T10:11:12.671Z,2.10
2022-10-19T10:13:50.324Z,2.30
2022-10-19T10:16:24.785Z,1.70
2022-10-19T10:19:00.822Z,1.80
2022-10-19T10:21:36.473Z,1.50
2022-10-19T10:24:17.599Z,1.90
2022-10-19T10:26:51.087Z,1.60
2022-10-19T10:29:25.557Z,1.50
2022-10-19T10:32:01.255Z,1.70
2022-10-19T10:34:50.173Z,1.20
2022-10-19T10:37:27.123Z,1.20
2022-10-19T10:40:03.678Z,1.30
2022-10-19T10:42:42.801Z,1.10
2022-10-19T10:45:20.729Z,1.40
2022-10-19T10:47:54.137Z,1.60
2022-10-19T10:50:28.901Z,1.30
2022-10-19T10:53:03.269Z,1.60
2022-10-19T10:55:36.449Z,1.30
2022-10-19T10:58:16.418Z,1.30
2022-10-19T11:00:53.378Z,1.40
2022-10-19T11:03:30.483Z,1.30
2022-10-19T11:06:03.699Z,1.30
2022-10-19T11:08:44.186Z,1.30
2022-10-19T11:11:19.254Z,1.10
2022-10-19T11:13:59.141Z,1.30
2022-10-19T11:16:34.830Z,1.30
2022-10-19T11:21:56.975Z,1.60
2022-10-19T11:24:46.394Z,1.30
2022-10-19T11:27:33.487Z,1.30
2022-10-19T11:30:12.775Z,2.60
2022-10-19T11:32:58.779Z,1.80
2022-10-19T11:35:47.230Z,1.30
2022-10-19T11:38:34.121Z,1.10
2022-10-19T11:41:18.878Z,1.40
2022-10-19T11:44:04.092Z,1.00
2022-10-19T11:46:43.447Z,1.30
2022-10-19T11:49:28.809Z,2.00
2022-10-19T11:52:10.509Z,1.40
2022-10-19T11:54:54.704Z,1.10
2022-10-19T11:57:32.311Z,1.00
2022-10-19T12:00:15.213Z,1.00
2022-10-19T12:03:24.183Z,0.80
2022-10-19T12:06:08.014Z,0.90
2022-10-19T12:08:55.393Z,1.00
2022-10-19T12:11:36.687Z,1.00
2022-10-19T12:14:14.739Z,1.00
2022-10-19T12:16:51.458Z,1.00
2022-10-19T12:19:27.350Z,1.00
2022-10-19T12:22:03.695Z,1.10
2022-10-19T12:24:36.559Z,1.00
2022-10-19T12:27:12.086Z,1.10
2022-10-19T12:29:49.154Z,1.10
2022-10-19T12:32:24.741Z,1.20
2022-10-19T12:35:03.442Z,1.20
2022-10-19T12:37:41.000Z,1.30
2022-10-19T12:40:23.833Z,1.10
2022-10-19T12:43:03.296Z,0.90
2022-10-19T12:45:38.402Z,1.50
2022-10-19T12:48:22.077Z,1.10
2022-10-19T12:51:09.028Z,1.00
2022-10-19T12:53:44.393Z,1.00
2022-10-19T12:56:21.935Z,0.90
2022-10-19T12:58:57.731Z,0.90
2022-10-19T13:01:44.043Z,1.00
2022-10-19T13:04:20.562Z,1.20
2022-10-19T13:07:01.550Z,1.10
2022-10-19T13:09:36.544Z,1.10
2022-10-19T13:12:44.865Z,1.20
2022-10-19T13:15:52.430Z,1.00
2022-10-19T13:19:07.679Z,1.40
2022-10-19T13:21:50.887Z,1.00
2022-10-19T13:24:35.733Z,0.70
2022-10-19T13:27:28.387Z,0.80
2022-10-19T13:30:00.441Z,0.90
2022-10-19T13:35:30.520Z,0.90
2022-10-19T13:38:26.450Z,0.90
2022-10-19T13:41:09.832Z,0.90
2022-10-19T13:43:52.262Z,0.80
2022-10-19T13:46:35.581Z,0.90
2022-10-19T13:49:40.373Z,1.00
2022-10-19T13:52:40.242Z,0.90
2022-10-19T13:55:47.471Z,0.80
2022-10-19T13:58:41.971Z,0.80
2022-10-19T14:01:28.204Z,0.90
2022-10-19T14:04:19.071Z,1.80
2022-10-19T14:06:55.552Z,0.90
2022-10-19T14:09:57.174Z,1.10
2022-10-19T14:12:32.221Z,1.10
2022-10-19T14:15:20.853Z,1.40
2022-10-19T14:17:52.997Z,1.10
2022-10-19T14:23:18.703Z,1.10
2022-10-19T14:26:00.661Z,1.10
2022-10-19T14:28:36.438Z,1.20
2022-10-19T14:31:11.991Z,1.00
2022-10-19T14:33:51.371Z,1.10
2022-10-19T14:36:26.653Z,1.00
2022-10-19T14:39:02.527Z,1.10
2022-10-19T14:41:37.862Z,1.30
2022-10-19T14:44:31.588Z,1.20
2022-10-19T14:47:07.926Z,1.60
2022-10-19T14:49:39.886Z,1.60
2022-10-19T14:52:18.816Z,1.50
2022-10-19T14:54:53.547Z,1.30
2022-10-19T14:57:33.265Z,1.70
2022-10-19T15:00:10.659Z,1.60
2022-10-19T15:02:47.855Z,1.60
2022-10-19T15:05:22.951Z,1.60
2022-10-19T15:07:56.094Z,1.70
2022-10-19T15:10:37.084Z,1.30
2022-10-19T15:13:17.809Z,1.50
2022-10-19T15:15:54.133Z,1.40
2022-10-19T15:18:48.317Z,1.50
2022-10-19T15:21:23.171Z,1.60
2022-10-19T15:23:55.442Z,2.00
2022-10-19T15:29:20.076Z,2.00
2022-10-19T15:31:56.346Z,1.80
2022-10-19T15:34:31.269Z,2.40
2022-10-19T15:37:03.866Z,1.80
2022-10-19T15:39:42.084Z,2.00
2022-10-19T15:42:39.353Z,1.60
2022-10-19T15:45:32.189Z,1.80
2022-10-19T15:48:29.190Z,1.70
2022-10-19T15:51:01.162Z,1.70
2022-10-19T15:53:32.937Z,1.70
2022-10-19T15:56:04.800Z,2.00
2022-10-19T15:58:36.743Z,2.50
2022-10-19T16:01:17.407Z,2.40
2022-10-19T16:03:49.869Z,2.70
2022-10-19T16:06:23.877Z,2.50
2022-10-19T16:08:56.404Z,1.70
2022-10-19T16:11:34.711Z,2.40
2022-10-19T16:14:06.552Z,1.90
2022-10-19T16:16:38.906Z,2.50
2022-10-19T16:21:46.695Z,2.10
2022-10-19T16:24:22.095Z,2.00
2022-10-19T16:26:56.638Z,2.40
2022-10-19T16:29:29.160Z,2.30
2022-10-19T16:32:01.232Z,2.60
2022-10-19T16:37:06.760Z,4.60
2022-10-19T16:39:39.489Z,3.90
2022-10-19T16:42:11.858Z,3.00
2022-10-19T16:47:14.011Z,3.00
2022-10-19T16:49:45.845Z,2.80
2022-10-19T16:52:18.091Z,3.20
2022-10-19T16:54:50.078Z,3.40
2022-10-19T17:00:04.837Z,3.20
2022-10-19T17:02:41.790Z,3.40
2022-10-19T17:05:16.475Z,3.30
2022-10-19T17:10:19.718Z,3.20
2022-10-19T17:12:51.903Z,3.40
2022-10-19T17:18:14.205Z,3.70
2022-10-19T17:20:46.134Z,4.20
2022-10-19T17:25:51.570Z,4.20
2022-10-19T17:28:26.837Z,4.20
2022-10-19T17:31:03.382Z,4.90
2022-10-19T17:33:35.841Z,4.10
2022-10-19T17:36:10.657Z,4.70
2022-10-19T17:38:43.223Z,5.10
2022-10-19T17:41:17.200Z,5.20
2022-10-19T17:43:51.735Z,5.40
2022-10-19T17:46:25.283Z,10.50
2022-10-19T17:48:58.035Z,6.30
2022-10-19T17:51:32.397Z,6.60
2022-10-19T17:54:07.720Z,5.60
2022-10-19T17:56:44.935Z,7.40
2022-10-19T17:59:22.590Z,10.20
2022-10-19T18:02:03.362Z,13.70
2022-10-19T18:07:09.004Z,8.70
2022-10-19T18:09:41.601Z,6.50
2022-10-19T18:12:14.163Z,6.00
2022-10-19T18:14:46.860Z,6.10
2022-10-19T18:17:21.749Z,5.80
2022-10-19T18:19:57.104Z,5.20
2022-10-19T18:22:29.887Z,4.70
2022-10-19T18:25:02.215Z,5.70
2022-10-19T18:27:35.554Z,5.80
2022-10-19T18:30:10.696Z,7.70
2022-10-19T18:32:42.885Z,6.80
2022-10-19T18:35:15.643Z,6.70
2022-10-19T18:37:48.475Z,6.50
2022-10-19T18:40:22.091Z,6.80
2022-10-19T18:42:55.280Z,7.00
2022-10-19T18:45:29.752Z,6.30
2022-10-19T18:48:02.498Z,6.70
2022-10-19T18:50:35.045Z,6.60
2022-10-19T18:53:07.232Z,6.70
2022-10-19T18:55:39.298Z,6.50
2022-10-19T18:58:13.368Z,6.50
2022-10-19T19:00:46.366Z,7.10
2022-10-19T19:03:20.583Z,8.00
2022-10-19T19:05:53.110Z,7.20
2022-10-19T19:08:25.995Z,7.60
2022-10-19T19:10:58.625Z,7.90
2022-10-19T19:13:30.818Z,7.80
2022-10-19T19:16:07.862Z,8.00
2022-10-19T19:18:40.051Z,8.90
2022-10-19T19:21:18.904Z,8.90
2022-10-19T19:23:51.465Z,9.70
2022-10-19T19:26:26.406Z,9.10
2022-10-19T19:28:59.149Z,9.40
2022-10-19T19:31:31.887Z,11.10
2022-10-19T19:34:15.324Z,10.20
2022-10-19T19:36:49.565Z,9.50
2022-10-19T19:39:23.020Z,9.60
2022-10-19T19:41:54.907Z,10.40
2022-10-19T19:44:30.571Z,8.20
2022-10-19T19:47:04.773Z,9.50
2022-10-19T19:49:37.392Z,8.30
2022-10-19T19:52:09.590Z,9.70
2022-10-19T19:54:42.740Z,9.50
2022-10-19T19:57:18.146Z,9.90
2022-10-19T19:59:53.758Z,9.00
2022-10-19T20:02:25.627Z,9.70
2022-10-19T20:04:57.681Z,9.30
2022-10-19T20:10:02.338Z,7.00
2022-10-19T20:12:35.666Z,6.90
2022-10-19T20:15:08.854Z,6.00
2022-10-19T20:17:40.963Z,5.10
2022-10-19T20:20:15.498Z,5.50
2022-10-19T20:22:50.028Z,6.10
2022-10-19T20:25:22.042Z,5.00
2022-10-19T20:30:24.581Z,5.10
2022-10-19T20:35:28.080Z,5.40
2022-10-19T20:38:00.203Z,5.70
2022-10-19T20:40:32.225Z,5.60
2022-10-19T20:45:37.440Z,6.30
2022-10-19T20:48:09.456Z,7.90
2022-10-19T20:50:41.312Z,6.90
2022-10-19T20:53:13.275Z,7.20
2022-10-19T20:55:45.204Z,6.90
2022-10-19T20:58:17.157Z,6.90
2022-10-19T21:00:49.322Z,6.70
2022-10-19T21:05:53.547Z,7.30
2022-10-19T21:10:55.820Z,6.00
2022-10-19T21:13:27.815Z,6.50
2022-10-19T21:15:59.984Z,6.70
2022-10-19T21:18:31.849Z,6.70
2022-10-19T21:21:10.475Z,6.80
2022-10-19T21:23:43.165Z,7.20
2022-10-19T21:26:15.558Z,6.70
2022-10-19T21:28:50.728Z,5.50
2022-10-19T21:31:24.356Z,6.90
2022-10-19T21:33:56.606Z,10.10
2022-10-19T21:38:59.081Z,6.30
2022-10-19T21:44:03.462Z,5.40
2022-10-19T21:46:35.591Z,4.80
2022-10-19T21:49:07.551Z,6.60
2022-10-19T21:51:43.605Z,5.30
2022-10-19T21:54:17.744Z,4.70
2022-10-19T21:56:50.165Z,4.80
2022-10-19T21:59:22.060Z,4.20
2022-10-19T22:01:55.312Z,3.40
2022-10-19T22:04:27.231Z,6.30
2022-10-19T22:06:59.595Z,4.00
2022-10-19T22:09:31.470Z,3.40
2022-10-19T22:12:03.532Z,3.00
2022-10-19T22:17:06.199Z,3.40
2022-10-19T22:19:38.176Z,3.60
2022-10-19T22:22:10.085Z,4.10
2022-10-19T22:24:42.150Z,4.70
2022-10-19T22:27:14.025Z,3.90
2022-10-19T22:29:45.989Z,4.10
2022-10-19T22:32:18.044Z,5.80
2022-10-19T22:34:50.380Z,9.00
2022-10-19T22:37:22.264Z,14.70
2022-10-19T22:39:54.356Z,13.50
2022-10-19T22:44:57.076Z,10.50
2022-10-19T22:47:29.059Z,8.70
2022-10-19T22:50:01.431Z,10.40
2022-10-19T22:52:33.743Z,7.00
2022-10-19T22:55:06.238Z,8.10
2022-10-19T22:57:38.242Z,10.00
2022-10-19T23:00:12.753Z,12.70
2022-10-19T23:02:44.884Z,9.60
2022-10-19T23:05:17.706Z,9.00
2022-10-19T23:07:49.757Z,9.50
2022-10-19T23:10:21.688Z,8.10
2022-10-19T23:12:54.559Z,9.20
2022-10-19T23:15:26.731Z,8.50
2022-10-19T23:18:00.462Z,12.10
2022-10-19T23:20:32.657Z,11.00
2022-10-19T23:25:34.995Z,5.70
2022-10-19T23:28:07.300Z,4.30
2022-10-19T23:30:41.272Z,4.90
2022-10-19T23:33:13.112Z,4.60
2022-10-19T23:35:45.091Z,4.30
2022-10-19T23:38:17.145Z,4.10
2022-10-19T23:43:19.458Z,4.20
2022-10-19T23:45:51.417Z,3.70
2022-10-19T23:48:23.483Z,3.70
2022-10-19T23:53:38.439Z,4.50
2022-10-19T23:56:16.123Z,4.30
2022-10-19T23:58:48.498Z,4.50
